• Join FlightAware (Why Join?)
  • Login
  • US Flag 
01:54AM EST


 

Airport Tracker/Info


-or-


 

Live Flight TrackerFlight Track Log ✈ N600AJ ✈ 06-Jul-2014 ✈ KTEB - KROC

Flight Track Log - Related Links

Times and Time Zones

All times are in EDT time to prevent confusion due to time zone crossing. See the N600AJ flight status page for this flight to view local times or setup timezone preferences in your user account.

Time Position Orientation Groundspeed Altitude Reporting Facility
EDT Latitude Longitude Course Direction KTS MPH feet Rate Location/Type
05:52PM 40.8333 -74.1667 270° West 187 215 1,800  Level New York TRACON
05:53PM 40.8333 -74.2333 270° West 219 252 6,900 4,020 Climbing New York TRACON
05:54PM 40.8500 -74.3167 285° West 280 322 9,900 1,380 Climbing New York TRACON
05:56PM 41.0331 -74.3936 342° North 338 389 11,400 1,200 Climbing New York Center
05:57PM 41.1058 -74.4664 323° Northwest 359 413 13,700 2,280 Climbing New York Center
05:58PM 41.2008 -74.5572 324° Northwest 382 440 16,000 1,740 Climbing New York Center
05:59PM 41.2747 -74.6553 315° West 395 455 17,300 1,680 Climbing New York Center
06:00PM 41.3517 -74.7839 309° West 401 461 19,400 1,980 Climbing New York Center
06:01PM 41.4225 -74.9017 309° West 411 473 21,300 840 Climbing New York Center
06:03PM 41.5719 -75.1492 309° West 424 488 22,000 180 Climbing New York Center
06:04PM 41.6144 -75.2908 292° West 424 488 22,000  Level New York Center
06:05PM 41.6547 -75.4378 290° West 414 476 22,000  Level New York Center
06:06PM 41.6947 -75.5794 291° West 419 482 22,000  Level New York Center
06:07PM 41.7367 -75.7269 291° West 419 482 22,000  Level New York Center
06:08PM 41.7764 -75.8719 290° West 414 476 22,000  Level New York Center
06:10PM 41.9217 -76.1172 309° West 419 482 22,000  Level New York Center
06:11PM 42.0019 -76.2325 313° West 419 482 22,000  Level New York Center
06:13PM 42.1158 -76.3931 314° West 426 490 22,000  Level Cleveland Center
06:14PM 42.1953 -76.5067 313° West 422 486 22,000  Level Cleveland Center
06:15PM 42.2739 -76.6256 312° West 422 486 22,000 -1,500 Level Cleveland Center
06:18PM 42.5267 -76.9975 318° Northwest 419 482 16,000 -1,500 Descending Cleveland Center
06:19PM 42.6092 -77.0917 320° Northwest 394 453 16,000 -120 Level Cleveland Center
06:19PM 42.6458 -77.1319 321° Northwest 389 448 15,900 -1,380 Descending Cleveland Center
06:20PM 42.6903 -77.1825 320° Northwest 389 448 14,600 -2,640 Descending Cleveland Center
06:21PM 42.7631 -77.2656 320° Northwest 319 367 11,700 -2,460 Descending Cleveland Center
06:23PM 42.9006 -77.4047 316° Northwest 269 310 7,100 -2,160 Descending Cleveland Center
06:24PM 42.8605 -77.3714 318° Northwest  Level FlightAware Approximate
06:24PM 42.9592 -77.4403 336° Northwest 267 307 5,200  Level Cleveland Center
06:24PM 42.9658 -77.4456 330° Northwest 271 312 5,000 -2,280 Descending Cleveland Center
06:25PM 43.0289 -77.4875 334° Northwest 262 302 2,900 -1,260 Descending Cleveland Center
06:26PM 43.0889 -77.5236 336° Northwest 239 275 2,500 -480 Descending Cleveland Center
06:27PM 43.1258 -77.5825 311° West 174 200 1,900 -840 Descending Cleveland Center
06:28PM 43.1242 -77.6400 268° West 126 145 900 -660 Descending Cleveland Center
06:29PM 43.1228 -77.6769 267° West 121 139 600 -300 Descending Cleveland Center
06:31PM 43.1167 -77.6667 North  Level FlightAware Approximate